sensor_id;sensor_type;location;lat;lon;timestamp;pressure;altitude;pressure_sealevel;temperature;humidity
6435;BME280;3250;42.694;23.278;2024-03-02T00:02:14;94246.25;;;9.82;83.18
6435;BME280;3250;42.694;23.278;2024-03-02T00:04:40;94268.78;;;9.90;82.58
6435;BME280;3250;42.694;23.278;2024-03-02T00:07:06;94267.47;;;9.99;82.16
6435;BME280;3250;42.694;23.278;2024-03-02T00:09:32;94263.19;;;9.68;83.12
6435;BME280;3250;42.694;23.278;2024-03-02T00:12:00;94263.19;;;9.68;83.27
6435;BME280;3250;42.694;23.278;2024-03-02T00:14:25;94261.13;;;9.52;83.59
6435;BME280;3250;42.694;23.278;2024-03-02T00:16:55;94263.13;;;9.56;83.49
6435;BME280;3250;42.694;23.278;2024-03-02T00:19:21;94261.28;;;9.75;82.60
6435;BME280;3250;42.694;23.278;2024-03-02T00:21:47;94248.00;;;9.70;82.65
6435;BME280;3250;42.694;23.278;2024-03-02T00:24:31;94251.91;;;9.97;82.24
6435;BME280;3250;42.694;23.278;2024-03-02T00:26:57;94254.53;;;9.97;81.87
6435;BME280;3250;42.694;23.278;2024-03-02T00:29:23;94249.75;;;9.94;81.45
6435;BME280;3250;42.694;23.278;2024-03-02T00:31:49;94255.56;;;9.96;81.34
6435;BME280;3250;42.694;23.278;2024-03-02T00:34:15;94253.63;;;9.73;82.08
6435;BME280;3250;42.694;23.278;2024-03-02T00:36:42;94250.56;;;9.76;81.86
6435;BME280;3250;42.694;23.278;2024-03-02T00:39:08;94249.66;;;9.82;81.58
6435;BME280;3250;42.694;23.278;2024-03-02T00:41:34;94238.22;;;9.77;81.61
6435;BME280;3250;42.694;23.278;2024-03-02T00:44:04;94243.53;;;9.89;81.73
6435;BME280;3250;42.694;23.278;2024-03-02T00:46:38;94245.69;;;10.10;80.73
6435;BME280;3250;42.694;23.278;2024-03-02T00:51:36;94252.59;;;9.93;81.28
6435;BME280;3250;42.694;23.278;2024-03-02T00:54:04;94240.66;;;10.08;80.94
6435;BME280;3250;42.694;23.278;2024-03-02T00:56:31;94244.41;;;10.12;80.33
6435;BME280;3250;42.694;23.278;2024-03-02T00:58:57;94244.66;;;10.11;80.46
6435;BME280;3250;42.694;23.278;2024-03-02T01:01:23;94248.31;;;10.10;80.41
6435;BME280;3250;42.694;23.278;2024-03-02T01:03:49;94256.63;;;10.07;81.08
6435;BME280;3250;42.694;23.278;2024-03-02T01:06:15;94250.34;;;10.26;80.63
6435;BME280;3250;42.694;23.278;2024-03-02T01:08:42;94253.16;;;10.43;80.06
6435;BME280;3250;42.694;23.278;2024-03-02T01:11:07;94249.13;;;10.40;79.76
6435;BME280;3250;42.694;23.278;2024-03-02T01:13:33;94252.81;;;10.51;79.87
6435;BME280;3250;42.694;23.278;2024-03-02T01:15:59;94239.88;;;10.49;80.17
6435;BME280;3250;42.694;23.278;2024-03-02T01:18:24;94237.84;;;10.51;80.02
6435;BME280;3250;42.694;23.278;2024-03-02T01:20:50;94235.31;;;10.56;80.16
6435;BME280;3250;42.694;23.278;2024-03-02T01:23:24;94232.34;;;10.53;80.54
6435;BME280;3250;42.694;23.278;2024-03-02T01:25:50;94232.69;;;10.45;80.01
6435;BME280;3250;42.694;23.278;2024-03-02T01:28:17;94205.91;;;10.36;78.92
6435;BME280;3250;42.694;23.278;2024-03-02T01:30:42;94228.47;;;10.67;78.05
6435;BME280;3250;42.694;23.278;2024-03-02T01:33:08;94220.00;;;10.65;77.88
6435;BME280;3250;42.694;23.278;2024-03-02T01:35:34;94227.16;;;10.35;79.50
6435;BME280;3250;42.694;23.278;2024-03-02T01:38:00;94203.81;;;10.27;79.76
6435;BME280;3250;42.694;23.278;2024-03-02T01:40:26;94219.75;;;10.43;78.87
6435;BME280;3250;42.694;23.278;2024-03-02T01:42:53;94225.34;;;10.47;79.11
6435;BME280;3250;42.694;23.278;2024-03-02T01:45:23;94194.56;;;10.36;79.94
6435;BME280;3250;42.694;23.278;2024-03-02T01:47:49;94226.72;;;10.49;80.64
6435;BME280;3250;42.694;23.278;2024-03-02T01:50:15;94219.97;;;10.42;81.44
6435;BME280;3250;42.694;23.278;2024-03-02T01:52:40;94203.34;;;10.30;81.41
6435;BME280;3250;42.694;23.278;2024-03-02T01:55:06;94215.72;;;10.41;81.30
6435;BME280;3250;42.694;23.278;2024-03-02T01:57:33;94212.50;;;10.39;81.19
6435;BME280;3250;42.694;23.278;2024-03-02T02:00:00;94210.47;;;10.41;81.07
6435;BME280;3250;42.694;23.278;2024-03-02T02:02:25;94205.06;;;9.94;82.47
6435;BME280;3250;42.694;23.278;2024-03-02T02:04:51;94218.09;;;10.01;83.16
6435;BME280;3250;42.694;23.278;2024-03-02T02:07:16;94210.13;;;10.07;83.62
6435;BME280;3250;42.694;23.278;2024-03-02T02:09:42;94213.91;;;10.11;84.34
6435;BME280;3250;42.694;23.278;2024-03-02T02:12:08;94214.47;;;10.13;83.37
6435;BME280;3250;42.694;23.278;2024-03-02T02:14:34;94208.38;;;10.19;83.12
6435;BME280;3250;42.694;23.278;2024-03-02T02:17:00;94217.28;;;10.18;83.58
6435;BME280;3250;42.694;23.278;2024-03-02T02:19:25;94213.16;;;10.23;83.75
6435;BME280;3250;42.694;23.278;2024-03-02T02:21:51;94213.97;;;10.23;84.15
6435;BME280;3250;42.694;23.278;2024-03-02T02:24:16;94215.28;;;10.14;84.76
6435;BME280;3250;42.694;23.278;2024-03-02T02:26:41;94213.97;;;10.23;84.99
6435;BME280;3250;42.694;23.278;2024-03-02T02:29:07;94218.63;;;10.21;84.95
6435;BME280;3250;42.694;23.278;2024-03-02T02:31:39;94180.38;;;10.07;84.76
6435;BME280;3250;42.694;23.278;2024-03-02T02:34:05;94213.34;;;10.09;84.86
6435;BME280;3250;42.694;23.278;2024-03-02T02:36:34;94208.41;;;9.83;86.86
6435;BME280;3250;42.694;23.278;2024-03-02T02:39:02;94207.69;;;9.94;86.44
6435;BME280;3250;42.694;23.278;2024-03-02T02:41:32;94205.81;;;9.95;86.64
6435;BME280;3250;42.694;23.278;2024-03-02T02:43:57;94215.00;;;10.04;86.18
6435;BME280;3250;42.694;23.278;2024-03-02T02:46:23;94212.97;;;10.06;86.23
6435;BME280;3250;42.694;23.278;2024-03-02T02:48:48;94218.22;;;10.06;86.46
6435;BME280;3250;42.694;23.278;2024-03-02T02:51:14;94200.94;;;9.68;87.40
6435;BME280;3250;42.694;23.278;2024-03-02T02:53:40;94214.47;;;9.83;87.11
6435;BME280;3250;42.694;23.278;2024-03-02T02:56:08;94219.66;;;9.90;87.30
6435;BME280;3250;42.694;23.278;2024-03-02T02:58:34;94212.06;;;9.82;87.79
6435;BME280;3250;42.694;23.278;2024-03-02T03:00:59;94192.50;;;9.78;87.59
6435;BME280;3250;42.694;23.278;2024-03-02T03:03:25;94220.44;;;9.91;87.52
6435;BME280;3250;42.694;23.278;2024-03-02T03:05:50;94215.09;;;9.97;87.24
6435;BME280;3250;42.694;23.278;2024-03-02T03:08:16;94209.19;;;10.02;87.32
6435;BME280;3250;42.694;23.278;2024-03-02T03:10:42;94213.91;;;10.11;86.99
6435;BME280;3250;42.694;23.278;2024-03-02T03:13:07;94215.31;;;9.96;87.27
6435;BME280;3250;42.694;23.278;2024-03-02T03:15:35;94215.28;;;9.84;87.83
6435;BME280;3250;42.694;23.278;2024-03-02T03:18:04;94215.19;;;9.91;87.86
6435;BME280;3250;42.694;23.278;2024-03-02T03:20:30;94213.28;;;9.98;87.54
6435;BME280;3250;42.694;23.278;2024-03-02T03:22:56;94214.38;;;9.90;87.64
6435;BME280;3250;42.694;23.278;2024-03-02T03:25:22;94214.38;;;9.90;87.55
6435;BME280;3250;42.694;23.278;2024-03-02T03:27:48;94192.59;;;9.71;88.18
6435;BME280;3250;42.694;23.278;2024-03-02T03:30:14;94188.94;;;9.72;88.31
6435;BME280;3250;42.694;23.278;2024-03-02T03:32:40;94218.47;;;9.86;87.94
6435;BME280;3250;42.694;23.278;2024-03-02T03:35:06;94217.81;;;9.91;87.81
6435;BME280;3250;42.694;23.278;2024-03-02T03:37:32;94218.84;;;9.90;87.90
6435;BME280;3250;42.694;23.278;2024-03-02T03:40:01;94214.59;;;9.89;88.24
6435;BME280;3250;42.694;23.278;2024-03-02T03:42:28;94215.84;;;9.86;88.49
6435;BME280;3250;42.694;23.278;2024-03-02T03:44:53;94217.69;;;9.86;88.43
6435;BME280;3250;42.694;23.278;2024-03-02T03:47:19;94199.22;;;9.74;88.43
6435;BME280;3250;42.694;23.278;2024-03-02T03:49:45;94219.88;;;9.89;88.58
6435;BME280;3250;42.694;23.278;2024-03-02T03:52:11;94216.34;;;9.95;88.05
6435;BME280;3250;42.694;23.278;2024-03-02T03:54:36;94221.59;;;9.95;88.43
6435;BME280;3250;42.694;23.278;2024-03-02T03:57:03;94214.25;;;9.85;88.57
6435;BME280;3250;42.694;23.278;2024-03-02T03:59:29;94213.47;;;9.84;88.62
6435;BME280;3250;42.694;23.278;2024-03-02T04:01:54;94208.41;;;9.83;88.78
6435;BME280;3250;42.694;23.278;2024-03-02T04:04:20;94214.81;;;9.87;88.67
6435;BME280;3250;42.694;23.278;2024-03-02T04:06:45;94212.34;;;9.92;88.52
6435;BME280;3250;42.694;23.278;2024-03-02T04:09:11;94214.66;;;10.00;88.48
6435;BME280;3250;42.694;23.278;2024-03-02T04:11:36;94212.25;;;9.99;88.24
6435;BME280;3250;42.694;23.278;2024-03-02T04:14:02;94213.69;;;9.83;88.77
6435;BME280;3250;42.694;23.278;2024-03-02T04:16:27;94212.44;;;9.86;88.88
6435;BME280;3250;42.694;23.278;2024-03-02T04:18:54;94214.47;;;9.83;89.24
6435;BME280;3250;42.694;23.278;2024-03-02T04:21:19;94209.84;;;9.97;88.79
6435;BME280;3250;42.694;23.278;2024-03-02T04:23:45;94207.75;;;9.88;89.24
6435;BME280;3250;42.694;23.278;2024-03-02T04:26:10;94173.66;;;9.51;90.00
6435;BME280;3250;42.694;23.278;2024-03-02T04:28:36;94205.94;;;9.70;90.68
6435;BME280;3250;42.694;23.278;2024-03-02T04:31:01;94218.94;;;9.83;90.41
6435;BME280;3250;42.694;23.278;2024-03-02T04:33:27;94215.59;;;9.76;90.07
6435;BME280;3250;42.694;23.278;2024-03-02T04:35:52;94220.38;;;9.79;90.11
6435;BME280;3250;42.694;23.278;2024-03-02T04:38:18;94218.81;;;9.60;91.20
6435;BME280;3250;42.694;23.278;2024-03-02T04:40:43;94217.66;;;9.56;91.63
6435;BME280;3250;42.694;23.278;2024-03-02T04:43:09;94221.59;;;9.65;91.63
6435;BME280;3250;42.694;23.278;2024-03-02T04:45:38;94215.91;;;9.68;91.47
6435;BME280;3250;42.694;23.278;2024-03-02T04:48:03;94216.72;;;9.50;91.69
6435;BME280;3250;42.694;23.278;2024-03-02T04:50:29;94219.34;;;9.50;92.09
6435;BME280;3250;42.694;23.278;2024-03-02T04:52:55;94219.25;;;9.57;91.77
6435;BME280;3250;42.694;23.278;2024-03-02T04:55:20;94227.56;;;9.54;91.81
6435;BME280;3250;42.694;23.278;2024-03-02T04:57:55;94226.03;;;9.64;92.23
6435;BME280;3250;42.694;23.278;2024-03-02T05:00:21;94222.38;;;9.65;91.88
6435;BME280;3250;42.694;23.278;2024-03-02T05:02:46;94230.06;;;9.67;92.25
6435;BME280;3250;42.694;23.278;2024-03-02T05:05:12;94226.16;;;9.69;92.31
6435;BME280;3250;42.694;23.278;2024-03-02T05:07:38;94229.88;;;9.80;91.94
6435;BME280;3250;42.694;23.278;2024-03-02T05:10:03;94236.75;;;9.81;91.85
6435;BME280;3250;42.694;23.278;2024-03-02T05:12:29;94235.63;;;9.89;91.44
6435;BME280;3250;42.694;23.278;2024-03-02T05:15:15;94241.25;;;9.92;91.20
6435;BME280;3250;42.694;23.278;2024-03-02T05:17:41;94239.88;;;9.90;91.44
6435;BME280;3250;42.694;23.278;2024-03-02T05:20:10;94218.66;;;9.73;91.71
6435;BME280;3250;42.694;23.278;2024-03-02T05:22:36;94219.53;;;9.67;91.46
6435;BME280;3250;42.694;23.278;2024-03-02T05:25:05;94232.69;;;9.67;92.58
6435;BME280;3250;42.694;23.278;2024-03-02T05:27:31;94248.94;;;9.75;92.51
6435;BME280;3250;42.694;23.278;2024-03-02T05:30:00;94248.38;;;9.73;92.89
6435;BME280;3250;42.694;23.278;2024-03-02T05:32:25;94222.00;;;9.62;92.47
6435;BME280;3250;42.694;23.278;2024-03-02T05:34:51;94252.09;;;9.84;92.77
6435;BME280;3250;42.694;23.278;2024-03-02T05:37:17;94256.03;;;9.93;92.61
6435;BME280;3250;42.694;23.278;2024-03-02T05:39:42;94255.72;;;10.01;92.06
6435;BME280;3250;42.694;23.278;2024-03-02T05:42:11;94263.22;;;9.98;92.31
6435;BME280;3250;42.694;23.278;2024-03-02T05:44:36;94269.41;;;10.03;91.55
6435;BME280;3250;42.694;23.278;2024-03-02T05:47:02;94264.97;;;10.04;91.38
6435;BME280;3250;42.694;23.278;2024-03-02T05:49:28;94260.59;;;9.98;91.51
6435;BME280;3250;42.694;23.278;2024-03-02T05:51:54;94266.44;;;10.18;90.98
6435;BME280;3250;42.694;23.278;2024-03-02T05:54:20;94271.03;;;10.23;90.50
6435;BME280;3250;42.694;23.278;2024-03-02T05:56:45;94273.31;;;10.19;90.65
6435;BME280;3250;42.694;23.278;2024-03-02T05:59:11;94272.50;;;10.18;91.04
6435;BME280;3250;42.694;23.278;2024-03-02T06:01:41;94274.53;;;10.16;90.93
6435;BME280;3250;42.694;23.278;2024-03-02T06:04:08;94248.38;;;10.03;90.90
6435;BME280;3250;42.694;23.278;2024-03-02T06:06:34;94266.78;;;10.21;91.04
6435;BME280;3250;42.694;23.278;2024-03-02T06:09:02;94267.88;;;10.32;90.86
6435;BME280;3250;42.694;23.278;2024-03-02T06:11:35;94270.72;;;10.31;90.98
6435;BME280;3250;42.694;23.278;2024-03-02T06:14:02;94272.09;;;10.33;90.85
6435;BME280;3250;42.694;23.278;2024-03-02T06:16:27;94266.34;;;10.25;91.50
6435;BME280;3250;42.694;23.278;2024-03-02T06:18:53;94275.97;;;10.31;91.49
6435;BME280;3250;42.694;23.278;2024-03-02T06:21:19;94274.50;;;10.35;91.29
6435;BME280;3250;42.694;23.278;2024-03-02T06:23:45;94274.84;;;10.38;91.33
6435;BME280;3250;42.694;23.278;2024-03-02T06:26:10;94283.78;;;10.37;91.21
6435;BME280;3250;42.694;23.278;2024-03-02T06:28:36;94277.03;;;10.41;91.52
6435;BME280;3250;42.694;23.278;2024-03-02T06:31:02;94278.16;;;10.34;91.39
6435;BME280;3250;42.694;23.278;2024-03-02T06:33:27;94280.44;;;10.30;91.82
6435;BME280;3250;42.694;23.278;2024-03-02T06:35:53;94282.03;;;10.31;91.52
6435;BME280;3250;42.694;23.278;2024-03-02T06:38:19;94258.38;;;10.13;91.86
6435;BME280;3250;42.694;23.278;2024-03-02T06:40:44;94286.19;;;10.39;91.87
6435;BME280;3250;42.694;23.278;2024-03-02T06:43:10;94268.66;;;10.33;91.51
6435;BME280;3250;42.694;23.278;2024-03-02T06:45:35;94289.56;;;10.46;91.32
6435;BME280;3250;42.694;23.278;2024-03-02T06:48:01;94282.09;;;10.43;91.45
6435;BME280;3250;42.694;23.278;2024-03-02T06:50:26;94290.19;;;10.41;91.88
6435;BME280;3250;42.694;23.278;2024-03-02T06:52:52;94289.28;;;10.36;92.26
6435;BME280;3250;42.694;23.278;2024-03-02T06:55:18;94286.59;;;10.24;92.34
6435;BME280;3250;42.694;23.278;2024-03-02T06:57:43;94293.66;;;10.24;92.66
6435;BME280;3250;42.694;23.278;2024-03-02T07:00:09;94295.78;;;10.33;92.31
6435;BME280;3250;42.694;23.278;2024-03-02T07:02:35;94294.75;;;10.34;91.56
6435;BME280;3250;42.694;23.278;2024-03-02T07:05:02;94279.28;;;10.26;90.56
6435;BME280;3250;42.694;23.278;2024-03-02T07:07:28;94300.13;;;10.28;90.61
6435;BME280;3250;42.694;23.278;2024-03-02T07:09:53;94306.69;;;10.18;90.93
6435;BME280;3250;42.694;23.278;2024-03-02T07:12:19;94298.00;;;10.18;90.83
6435;BME280;3250;42.694;23.278;2024-03-02T07:14:44;94300.53;;;10.25;90.55
6435;BME280;3250;42.694;23.278;2024-03-02T07:17:22;94300.13;;;10.28;90.53
6435;BME280;3250;42.694;23.278;2024-03-02T07:19:47;94299.66;;;10.31;90.82
6435;BME280;3250;42.694;23.278;2024-03-02T07:22:13;94304.59;;;10.39;91.30
6435;BME280;3250;42.694;23.278;2024-03-02T07:24:40;94300.94;;;10.40;90.99
6435;BME280;3250;42.694;23.278;2024-03-02T07:27:06;94306.69;;;10.48;91.00
6435;BME280;3250;42.694;23.278;2024-03-02T07:29:32;94307.28;;;10.50;90.10
6435;BME280;3250;42.694;23.278;2024-03-02T07:31:57;94286.91;;;10.46;88.79
6435;BME280;3250;42.694;23.278;2024-03-02T07:34:23;94303.63;;;10.51;88.63
6435;BME280;3250;42.694;23.278;2024-03-02T07:36:48;94309.50;;;10.65;89.21
6435;BME280;3250;42.694;23.278;2024-03-02T07:39:14;94314.44;;;10.73;89.14
6435;BME280;3250;42.694;23.278;2024-03-02T07:41:39;94317.97;;;10.67;88.76
6435;BME280;3250;42.694;23.278;2024-03-02T07:44:05;94319.47;;;10.63;88.51
6435;BME280;3250;42.694;23.278;2024-03-02T07:46:30;94324.94;;;10.62;88.53
6435;BME280;3250;42.694;23.278;2024-03-02T07:48:56;94317.84;;;10.62;88.62
6435;BME280;3250;42.694;23.278;2024-03-02T07:51:21;94325.16;;;10.60;87.60
6435;BME280;3250;42.694;23.278;2024-03-02T07:53:47;94326.50;;;10.51;88.54
6435;BME280;3250;42.694;23.278;2024-03-02T07:56:12;94326.88;;;10.54;88.68
6435;BME280;3250;42.694;23.278;2024-03-02T07:58:38;94320.56;;;10.55;88.38
6435;BME280;3250;42.694;23.278;2024-03-02T08:01:03;94329.81;;;10.46;88.63
6435;BME280;3250;42.694;23.278;2024-03-02T08:03:29;94325.66;;;10.39;89.02
6435;BME280;3250;42.694;23.278;2024-03-02T08:05:54;94329.31;;;10.38;89.45
6435;BME280;3250;42.694;23.278;2024-03-02T08:08:20;94336.22;;;10.50;88.98
6435;BME280;3250;42.694;23.278;2024-03-02T08:10:45;94333.72;;;10.55;88.96
6435;BME280;3250;42.694;23.278;2024-03-02T08:13:11;94335.38;;;10.68;88.56
6435;BME280;3250;42.694;23.278;2024-03-02T08:15:37;94334.47;;;10.74;88.08
6435;BME280;3250;42.694;23.278;2024-03-02T08:18:02;94337.53;;;10.59;88.77
6435;BME280;3250;42.694;23.278;2024-03-02T08:20:28;94332.38;;;10.65;89.45
6435;BME280;3250;42.694;23.278;2024-03-02T08:22:54;94339.19;;;10.72;89.51
6435;BME280;3250;42.694;23.278;2024-03-02T08:25:20;94339.56;;;10.87;88.90
6435;BME280;3250;42.694;23.278;2024-03-02T08:27:46;94338.19;;;10.85;88.47
6435;BME280;3250;42.694;23.278;2024-03-02T08:30:12;94336.50;;;10.61;88.96
6435;BME280;3250;42.694;23.278;2024-03-02T08:32:38;94332.59;;;10.33;89.42
6435;BME280;3250;42.694;23.278;2024-03-02T08:35:04;94330.16;;;10.50;90.00
6435;BME280;3250;42.694;23.278;2024-03-02T08:37:30;94325.16;;;10.60;89.70
6435;BME280;3250;42.694;23.278;2024-03-02T08:39:55;94331.94;;;10.68;89.27
6435;BME280;3250;42.694;23.278;2024-03-02T08:42:22;94333.59;;;10.92;89.21
6435;BME280;3250;42.694;23.278;2024-03-02T08:44:47;94337.00;;;10.69;88.61
6435;BME280;3250;42.694;23.278;2024-03-02T08:47:13;94326.41;;;10.57;88.86
6435;BME280;3250;42.694;23.278;2024-03-02T08:49:39;94337.28;;;10.31;89.44
6435;BME280;3250;42.694;23.278;2024-03-02T08:52:04;94334.53;;;10.26;89.46
6435;BME280;3250;42.694;23.278;2024-03-02T08:54:30;94331.88;;;10.44;88.95
6435;BME280;3250;42.694;23.278;2024-03-02T08:56:56;94335.59;;;10.67;88.67
6435;BME280;3250;42.694;23.278;2024-03-02T08:59:22;94343.66;;;10.83;88.82
6435;BME280;3250;42.694;23.278;2024-03-02T09:01:47;94342.25;;;11.11;87.79
6435;BME280;3250;42.694;23.278;2024-03-02T09:04:13;94339.97;;;11.26;86.88
6435;BME280;3250;42.694;23.278;2024-03-02T09:06:38;94344.13;;;11.45;86.07
6435;BME280;3250;42.694;23.278;2024-03-02T09:09:04;94344.56;;;11.42;85.01
6435;BME280;3250;42.694;23.278;2024-03-02T09:11:30;94313.38;;;11.51;85.42
6435;BME280;3250;42.694;23.278;2024-03-02T09:13:55;94352.06;;;11.80;84.61
6435;BME280;3250;42.694;23.278;2024-03-02T09:16:21;94354.69;;;11.92;84.30
6435;BME280;3250;42.694;23.278;2024-03-02T09:18:47;94354.66;;;11.45;84.12
6435;BME280;3250;42.694;23.278;2024-03-02T09:21:12;94348.38;;;11.58;85.86
6435;BME280;3250;42.694;23.278;2024-03-02T09:23:38;94355.81;;;11.72;84.95
6435;BME280;3250;42.694;23.278;2024-03-02T09:26:05;94355.94;;;11.78;83.60
6435;BME280;3250;42.694;23.278;2024-03-02T09:28:30;94362.59;;;11.80;83.26
6435;BME280;3250;42.694;23.278;2024-03-02T09:30:56;94356.75;;;11.78;83.31
6435;BME280;3250;42.694;23.278;2024-03-02T09:33:21;94356.66;;;11.85;82.59
6435;BME280;3250;42.694;23.278;2024-03-02T09:35:46;94364.53;;;11.96;82.56
6435;BME280;3250;42.694;23.278;2024-03-02T09:38:14;94338.50;;;11.77;82.68
6435;BME280;3250;42.694;23.278;2024-03-02T09:40:41;94366.41;;;11.84;82.31
6435;BME280;3250;42.694;23.278;2024-03-02T09:43:07;94363.97;;;11.83;82.47
6435;BME280;3250;42.694;23.278;2024-03-02T09:45:32;94364.88;;;11.88;82.66
6435;BME280;3250;42.694;23.278;2024-03-02T09:47:58;94365.78;;;11.94;82.56
6435;BME280;3250;42.694;23.278;2024-03-02T09:50:24;94369.72;;;11.91;82.81
6435;BME280;3250;42.694;23.278;2024-03-02T09:52:50;94371.31;;;11.92;82.81
6435;BME280;3250;42.694;23.278;2024-03-02T09:55:16;94359.16;;;11.80;82.61
6435;BME280;3250;42.694;23.278;2024-03-02T09:57:43;94361.69;;;11.75;82.25
6435;BME280;3250;42.694;23.278;2024-03-02T10:00:09;94360.97;;;11.56;82.70
6435;BME280;3250;42.694;23.278;2024-03-02T10:02:43;94368.53;;;11.64;83.07
6435;BME280;3250;42.694;23.278;2024-03-02T10:05:11;94358.22;;;11.74;83.40
6435;BME280;3250;42.694;23.278;2024-03-02T10:07:37;94345.50;;;11.71;83.34
6435;BME280;3250;42.694;23.278;2024-03-02T10:10:13;94366.84;;;11.93;83.63
6435;BME280;3250;42.694;23.278;2024-03-02T10:12:39;94361.22;;;11.89;84.42
6435;BME280;3250;42.694;23.278;2024-03-02T10:15:05;94349.97;;;11.94;84.69
6435;BME280;3250;42.694;23.278;2024-03-02T10:18:09;94340.69;;;11.91;84.76
6435;BME280;3250;42.694;23.278;2024-03-02T10:20:37;94363.38;;;12.04;84.60
6435;BME280;3250;42.694;23.278;2024-03-02T10:23:13;94347.91;;;12.07;85.06
6435;BME280;3250;42.694;23.278;2024-03-02T10:25:39;94358.69;;;12.06;85.55
6435;BME280;3250;42.694;23.278;2024-03-02T10:28:05;94357.56;;;12.02;85.64
6435;BME280;3250;42.694;23.278;2024-03-02T10:30:32;94354.78;;;12.08;85.82
6435;BME280;3250;42.694;23.278;2024-03-02T10:32:57;94359.69;;;12.05;85.72
6435;BME280;3250;42.694;23.278;2024-03-02T10:35:23;94355.59;;;11.97;86.07
6435;BME280;3250;42.694;23.278;2024-03-02T10:37:49;94354.56;;;11.98;86.01
6435;BME280;3250;42.694;23.278;2024-03-02T10:40:15;94353.09;;;11.91;86.22
6435;BME280;3250;42.694;23.278;2024-03-02T10:42:41;94353.88;;;11.91;86.22
6435;BME280;3250;42.694;23.278;2024-03-02T10:45:09;94357.78;;;12.00;86.24
6435;BME280;3250;42.694;23.278;2024-03-02T10:47:36;94356.03;;;12.06;85.54
6435;BME280;3250;42.694;23.278;2024-03-02T10:50:04;94348.22;;;12.11;85.44
6435;BME280;3250;42.694;23.278;2024-03-02T10:52:34;94347.31;;;12.17;85.63
6435;BME280;3250;42.694;23.278;2024-03-02T10:55:00;94346.97;;;12.14;85.89
6435;BME280;3250;42.694;23.278;2024-03-02T10:57:26;94343.63;;;12.18;84.45
6435;BME280;3250;42.694;23.278;2024-03-02T10:59:56;94336.00;;;11.93;84.85
6435;BME280;3250;42.694;23.278;2024-03-02T11:02:27;94342.97;;;11.88;86.03
6435;BME280;3250;42.694;23.278;2024-03-02T11:04:55;94336.31;;;11.85;85.68
6435;BME280;3250;42.694;23.278;2024-03-02T11:07:22;94341.38;;;11.87;85.91
6435;BME280;3250;42.694;23.278;2024-03-02T11:09:54;94338.78;;;11.75;86.41
6435;BME280;3250;42.694;23.278;2024-03-02T11:12:29;94335.28;;;11.86;86.31
6435;BME280;3250;42.694;23.278;2024-03-02T11:14:58;94319.59;;;11.80;86.13
6435;BME280;3250;42.694;23.278;2024-03-02T11:17:24;94334.50;;;11.86;86.77
6435;BME280;3250;42.694;23.278;2024-03-02T11:19:51;94334.03;;;11.77;86.81
6435;BME280;3250;42.694;23.278;2024-03-02T11:22:18;94333.00;;;11.78;86.42
6435;BME280;3250;42.694;23.278;2024-03-02T11:24:51;94321.44;;;11.67;85.65
6435;BME280;3250;42.694;23.278;2024-03-02T11:32:55;94301.91;;;11.68;85.72
6435;BME280;3250;42.694;23.278;2024-03-02T11:35:21;94326.25;;;11.82;85.92
6435;BME280;3250;42.694;23.278;2024-03-02T11:37:47;94329.03;;;11.76;85.36
6435;BME280;3250;42.694;23.278;2024-03-02T11:40:13;94327.28;;;11.81;84.31
6435;BME280;3250;42.694;23.278;2024-03-02T11:42:38;94330.81;;;11.87;84.23
6435;BME280;3250;42.694;23.278;2024-03-02T11:45:04;94329.34;;;11.91;83.73
6435;BME280;3250;42.694;23.278;2024-03-02T11:47:31;94325.78;;;11.97;83.84
6435;BME280;3250;42.694;23.278;2024-03-02T11:49:58;94333.81;;;11.90;83.89
6435;BME280;3250;42.694;23.278;2024-03-02T11:52:25;94330.81;;;11.87;83.10
6435;BME280;3250;42.694;23.278;2024-03-02T11:54:51;94316.84;;;11.86;83.32
6435;BME280;3250;42.694;23.278;2024-03-02T11:57:20;94317.09;;;11.85;83.39
6435;BME280;3250;42.694;23.278;2024-03-02T11:59:48;94326.03;;;11.84;84.07
6435;BME280;3250;42.694;23.278;2024-03-02T12:02:21;94333.25;;;11.88;83.64
6435;BME280;3250;42.694;23.278;2024-03-02T12:04:47;94313.16;;;11.87;83.62
6435;BME280;3250;42.694;23.278;2024-03-02T12:07:23;94329.78;;;11.99;83.52
6435;BME280;3250;42.694;23.278;2024-03-02T12:09:59;94312.94;;;11.89;83.34
6435;BME280;3250;42.694;23.278;2024-03-02T12:12:24;94317.84;;;11.97;83.22
6435;BME280;3250;42.694;23.278;2024-03-02T12:14:52;94330.03;;;11.86;82.95
6435;BME280;3250;42.694;23.278;2024-03-02T12:17:20;94306.97;;;11.70;83.15
6435;BME280;3250;42.694;23.278;2024-03-02T12:19:46;94321.09;;;11.64;84.15
6435;BME280;3250;42.694;23.278;2024-03-02T12:22:11;94329.13;;;11.81;84.50
6435;BME280;3250;42.694;23.278;2024-03-02T12:24:37;94321.13;;;11.76;84.33
6435;BME280;3250;42.694;23.278;2024-03-02T12:27:04;94323.72;;;11.87;84.66
6435;BME280;3250;42.694;23.278;2024-03-02T12:29:30;94329.44;;;11.96;84.41
6435;BME280;3250;42.694;23.278;2024-03-02T12:31:56;94330.25;;;11.96;84.10
6435;BME280;3250;42.694;23.278;2024-03-02T12:34:22;94322.19;;;12.03;84.18
6435;BME280;3250;42.694;23.278;2024-03-02T12:36:49;94326.06;;;12.12;83.71
6435;BME280;3250;42.694;23.278;2024-03-02T12:39:17;94332.13;;;12.24;83.38
6435;BME280;3250;42.694;23.278;2024-03-02T12:41:43;94327.31;;;12.21;82.18
6435;BME280;3250;42.694;23.278;2024-03-02T12:44:09;94306.50;;;12.08;82.68
6435;BME280;3250;42.694;23.278;2024-03-02T12:46:34;94329.28;;;12.26;82.55
6435;BME280;3250;42.694;23.278;2024-03-02T12:49:09;94328.56;;;12.30;82.77
6435;BME280;3250;42.694;23.278;2024-03-02T12:51:39;94329.13;;;12.32;82.44
6435;BME280;3250;42.694;23.278;2024-03-02T12:54:09;94327.81;;;12.18;82.49
6435;BME280;3250;42.694;23.278;2024-03-02T12:56:35;94326.28;;;12.22;81.99
6435;BME280;3250;42.694;23.278;2024-03-02T12:59:01;94338.22;;;12.25;81.93
6435;BME280;3250;42.694;23.278;2024-03-02T13:01:27;94316.56;;;12.11;81.92
6435;BME280;3250;42.694;23.278;2024-03-02T13:03:53;94329.19;;;12.09;82.77
6435;BME280;3250;42.694;23.278;2024-03-02T13:06:21;94338.50;;;12.00;82.81
6435;BME280;3250;42.694;23.278;2024-03-02T13:08:47;94333.81;;;12.02;82.99
6435;BME280;3250;42.694;23.278;2024-03-02T13:11:13;94331.63;;;11.99;83.93
6435;BME280;3250;42.694;23.278;2024-03-02T13:13:43;94333.22;;;12.00;83.74
6435;BME280;3250;42.694;23.278;2024-03-02T13:16:10;94330.25;;;11.96;83.14
6435;BME280;3250;42.694;23.278;2024-03-02T13:18:36;94308.47;;;11.78;82.80
6435;BME280;3250;42.694;23.278;2024-03-02T13:21:03;94332.66;;;11.86;83.16